Noi Bai International Airport (HAN/VVNB)




Flight Aircraft Arriving
CPX783 B763
RKSI - Incheon International Airport
Republic Of Korea Seoul, Republic Of Korea
Flight Aircraft Departing
CPX782 B763
RKSI - Incheon International Airport
Republic Of Korea Seoul, Republic Of Korea
Airport Information
Location: Hanoi, VN
Coordinates: 21.2212 / 105.807
Elevation:
Time Offset:
Local Time:
UTC Time:
Jet A Price: $/lbs

Current Weather
METAR: VVNB 052230Z 13006KT CAVOK 29/25 Q1003 NOSIG
TAF: TAF VVNB 051700Z 0518/0618 13007KT 8000 SCT017

Recent Arrivals
Date Flight Type Depart
Recent Departures
Date Flight Type Arrive